sensor_id;sensor_type;location;lat;lon;timestamp;pressure;altitude;pressure_sealevel;temperature;humidity
50356;BME280;36264;51.296;-0.602;2022-07-29T00:02:06;101572.28;;;14.58;62.97
50356;BME280;36264;51.296;-0.602;2022-07-29T00:04:34;101573.34;;;14.53;62.72
50356;BME280;36264;51.296;-0.602;2022-07-29T00:06:59;101568.41;;;14.45;63.21
50356;BME280;36264;51.296;-0.602;2022-07-29T00:09:25;101567.59;;;14.43;63.27
50356;BME280;36264;51.296;-0.602;2022-07-29T00:11:50;101565.03;;;14.41;63.21
50356;BME280;36264;51.296;-0.602;2022-07-29T00:14:15;101565.06;;;14.40;63.38
50356;BME280;36264;51.296;-0.602;2022-07-29T00:16:41;101569.56;;;14.36;63.22
50356;BME280;36264;51.296;-0.602;2022-07-29T00:19:06;101570.59;;;14.30;63.47
50356;BME280;36264;51.296;-0.602;2022-07-29T00:21:31;101573.44;;;14.24;63.59
50356;BME280;36264;51.296;-0.602;2022-07-29T00:23:57;101572.66;;;14.21;63.68
50356;BME280;36264;51.296;-0.602;2022-07-29T00:26:23;101572.06;;;14.12;64.17
50356;BME280;36264;51.296;-0.602;2022-07-29T00:28:48;101568.03;;;14.04;64.19
50356;BME280;36264;51.296;-0.602;2022-07-29T00:31:14;101570.78;;;13.99;64.47
50356;BME280;36264;51.296;-0.602;2022-07-29T00:33:40;101561.22;;;13.98;64.43
50356;BME280;36264;51.296;-0.602;2022-07-29T00:36:05;101567.34;;;13.97;64.42
50356;BME280;36264;51.296;-0.602;2022-07-29T00:38:31;101571.66;;;13.98;64.38
50356;BME280;36264;51.296;-0.602;2022-07-29T00:40:56;101572.66;;;13.94;64.21
50356;BME280;36264;51.296;-0.602;2022-07-29T00:43:21;101570.28;;;13.88;64.80
50356;BME280;36264;51.296;-0.602;2022-07-29T00:45:47;101573.88;;;13.84;64.72
50356;BME280;36264;51.296;-0.602;2022-07-29T00:48:12;101567.13;;;13.76;64.82
50356;BME280;36264;51.296;-0.602;2022-07-29T00:50:38;101564.69;;;13.72;64.99
50356;BME280;36264;51.296;-0.602;2022-07-29T00:53:06;101564.78;;;13.69;65.10
50356;BME280;36264;51.296;-0.602;2022-07-29T00:55:31;101566.56;;;13.67;65.01
50356;BME280;36264;51.296;-0.602;2022-07-29T00:57:58;101559.75;;;13.63;65.46
50356;BME280;36264;51.296;-0.602;2022-07-29T01:00:25;101559.78;;;13.61;65.39
50356;BME280;36264;51.296;-0.602;2022-07-29T01:02:51;101571.97;;;13.61;65.30
50356;BME280;36264;51.296;-0.602;2022-07-29T01:05:20;101567.69;;;13.58;65.38
50356;BME280;36264;51.296;-0.602;2022-07-29T01:07:49;101566.91;;;13.54;65.51
50356;BME280;36264;51.296;-0.602;2022-07-29T01:10:18;101559.34;;;13.47;65.61
50356;BME280;36264;51.296;-0.602;2022-07-29T01:12:46;101562.94;;;13.43;66.23
50356;BME280;36264;51.296;-0.602;2022-07-29T01:15:13;101555.16;;;13.41;65.95
50356;BME280;36264;51.296;-0.602;2022-07-29T01:28:49;101558.66;;;13.10;68.62
50356;BME280;36264;51.296;-0.602;2022-07-29T01:31:26;101559.63;;;13.06;67.68
50356;BME280;36264;51.296;-0.602;2022-07-29T01:34:01;101557.91;;;13.05;67.29
50356;BME280;36264;51.296;-0.602;2022-07-29T01:36:35;101564.00;;;13.05;67.34
50356;BME280;36264;51.296;-0.602;2022-07-29T01:39:21;101558.94;;;12.99;68.48
50356;BME280;36264;51.296;-0.602;2022-07-29T01:44:57;101562.56;;;12.94;68.05
50356;BME280;36264;51.296;-0.602;2022-07-29T01:47:26;101554.69;;;12.95;67.05
50356;BME280;36264;51.296;-0.602;2022-07-29T01:49:56;101553.91;;;12.93;66.96
50356;BME280;36264;51.296;-0.602;2022-07-29T01:52:27;101556.59;;;12.90;67.51
50356;BME280;36264;51.296;-0.602;2022-07-29T01:54:57;101562.72;;;12.87;67.60
50356;BME280;36264;51.296;-0.602;2022-07-29T01:57:27;101562.66;;;12.91;67.51
50356;BME280;36264;51.296;-0.602;2022-07-29T01:59:53;101559.09;;;12.93;67.28
50356;BME280;36264;51.296;-0.602;2022-07-29T02:02:20;101555.88;;;12.85;67.54
50356;BME280;36264;51.296;-0.602;2022-07-29T02:04:47;101561.13;;;12.83;67.77
50356;BME280;36264;51.296;-0.602;2022-07-29T02:07:18;101560.47;;;12.75;67.98
50356;BME280;36264;51.296;-0.602;2022-07-29T02:09:45;101566.69;;;12.69;68.13
50356;BME280;36264;51.296;-0.602;2022-07-29T02:12:14;101563.25;;;12.69;68.57
50356;BME280;36264;51.296;-0.602;2022-07-29T02:14:45;101552.97;;;12.63;68.11
50356;BME280;36264;51.296;-0.602;2022-07-29T02:17:12;101542.69;;;12.58;74.18
50356;BME280;36264;51.296;-0.602;2022-07-29T02:19:39;101555.50;;;12.66;68.80
50356;BME280;36264;51.296;-0.602;2022-07-29T02:22:06;101563.28;;;12.67;68.39
50356;BME280;36264;51.296;-0.602;2022-07-29T02:24:33;101560.69;;;12.67;68.28
50356;BME280;36264;51.296;-0.602;2022-07-29T02:27:02;101552.78;;;12.71;67.97
50356;BME280;36264;51.296;-0.602;2022-07-29T02:29:30;101556.34;;;12.66;68.48
50356;BME280;36264;51.296;-0.602;2022-07-29T02:31:58;101558.88;;;12.69;68.51
50356;BME280;36264;51.296;-0.602;2022-07-29T02:34:24;101555.34;;;12.72;68.49
50356;BME280;36264;51.296;-0.602;2022-07-29T02:36:50;101563.97;;;12.74;68.40
50356;BME280;36264;51.296;-0.602;2022-07-29T02:39:18;101563.81;;;12.80;68.16
50356;BME280;36264;51.296;-0.602;2022-07-29T02:41:48;101563.66;;;12.86;68.02
50356;BME280;36264;51.296;-0.602;2022-07-29T02:44:21;101558.34;;;12.90;68.10
50356;BME280;36264;51.296;-0.602;2022-07-29T02:47:02;101560.19;;;12.84;68.78
50356;BME280;36264;51.296;-0.602;2022-07-29T02:49:35;101553.34;;;12.82;69.03
50356;BME280;36264;51.296;-0.602;2022-07-29T02:52:06;101552.47;;;12.81;68.75
50356;BME280;36264;51.296;-0.602;2022-07-29T02:54:38;101556.66;;;12.87;68.55
50356;BME280;36264;51.296;-0.602;2022-07-29T02:57:13;101557.50;;;12.87;68.89
50356;BME280;36264;51.296;-0.602;2022-07-29T02:59:41;101561.84;;;12.89;68.40
50356;BME280;36264;51.296;-0.602;2022-07-29T03:02:09;101558.34;;;12.90;69.11
50356;BME280;36264;51.296;-0.602;2022-07-29T03:04:35;101558.31;;;12.91;68.76
50356;BME280;36264;51.296;-0.602;2022-07-29T03:07:05;101558.19;;;12.96;68.91
50356;BME280;36264;51.296;-0.602;2022-07-29T03:09:31;101552.84;;;12.99;68.63
50356;BME280;36264;51.296;-0.602;2022-07-29T03:11:57;101560.50;;;13.05;68.40
50356;BME280;36264;51.296;-0.602;2022-07-29T03:14:23;101560.53;;;13.03;68.69
50356;BME280;36264;51.296;-0.602;2022-07-29T03:16:49;101558.81;;;13.04;68.89
50356;BME280;36264;51.296;-0.602;2022-07-29T03:19:16;101562.28;;;13.04;68.80
50356;BME280;36264;51.296;-0.602;2022-07-29T03:21:42;101564.78;;;13.08;68.81
50356;BME280;36264;51.296;-0.602;2022-07-29T03:24:08;101563.88;;;13.10;68.76
50356;BME280;36264;51.296;-0.602;2022-07-29T03:26:33;101567.31;;;13.11;68.92
50356;BME280;36264;51.296;-0.602;2022-07-29T03:28:59;101566.47;;;13.10;69.42
50356;BME280;36264;51.296;-0.602;2022-07-29T03:31:25;101554.31;;;13.09;69.25
50356;BME280;36264;51.296;-0.602;2022-07-29T03:33:50;101558.69;;;13.09;69.41
50356;BME280;36264;51.296;-0.602;2022-07-29T03:36:16;101563.13;;;13.05;69.93
50356;BME280;36264;51.296;-0.602;2022-07-29T03:38:42;101565.59;;;13.10;69.58
50356;BME280;36264;51.296;-0.602;2022-07-29T03:41:10;101568.19;;;13.10;70.27
50356;BME280;36264;51.296;-0.602;2022-07-29T03:43:38;101567.34;;;13.09;70.01
50356;BME280;36264;51.296;-0.602;2022-07-29T03:46:07;101561.34;;;13.07;70.15
50356;BME280;36264;51.296;-0.602;2022-07-29T03:48:36;101569.97;;;13.09;70.47
50356;BME280;36264;51.296;-0.602;2022-07-29T03:51:03;101565.50;;;13.13;70.23
50356;BME280;36264;51.296;-0.602;2022-07-29T03:53:29;101562.81;;;13.16;70.04
50356;BME280;36264;51.296;-0.602;2022-07-29T03:55:58;101566.13;;;13.21;70.01
50356;BME280;36264;51.296;-0.602;2022-07-29T03:58:26;101565.25;;;13.22;70.03
50356;BME280;36264;51.296;-0.602;2022-07-29T04:00:54;101568.66;;;13.24;70.20
50356;BME280;36264;51.296;-0.602;2022-07-29T04:03:20;101563.44;;;13.24;69.98
50356;BME280;36264;51.296;-0.602;2022-07-29T04:08:25;101572.94;;;13.27;70.05
50356;BME280;36264;51.296;-0.602;2022-07-29T04:10:50;101569.44;;;13.28;70.09
50356;BME280;36264;51.296;-0.602;2022-07-29T04:13:18;101574.75;;;13.25;70.41
50356;BME280;36264;51.296;-0.602;2022-07-29T04:15:43;101580.78;;;13.27;70.40
50356;BME280;36264;51.296;-0.602;2022-07-29T04:18:09;101580.72;;;13.28;70.32
50356;BME280;36264;51.296;-0.602;2022-07-29T04:20:34;101567.72;;;13.27;70.89
50356;BME280;36264;51.296;-0.602;2022-07-29T04:22:59;101581.53;;;13.30;70.59
50356;BME280;36264;51.296;-0.602;2022-07-29T04:25:25;101573.63;;;13.33;70.69
50356;BME280;36264;51.296;-0.602;2022-07-29T04:27:50;101570.16;;;13.34;70.54
50356;BME280;36264;51.296;-0.602;2022-07-29T04:30:29;101572.81;;;13.33;70.30
50356;BME280;36264;51.296;-0.602;2022-07-29T04:32:55;101577.06;;;13.35;70.52
50356;BME280;36264;51.296;-0.602;2022-07-29T04:35:21;101581.44;;;13.35;70.27
50356;BME280;36264;51.296;-0.602;2022-07-29T04:37:46;101579.75;;;13.34;70.74
50356;BME280;36264;51.296;-0.602;2022-07-29T04:40:12;101579.66;;;13.35;70.74
50356;BME280;36264;51.296;-0.602;2022-07-29T04:42:38;101570.94;;;13.36;70.86
50356;BME280;36264;51.296;-0.602;2022-07-29T04:45:04;101577.84;;;13.39;70.83
50356;BME280;36264;51.296;-0.602;2022-07-29T04:47:30;101569.09;;;13.40;70.92
50356;BME280;36264;51.296;-0.602;2022-07-29T04:49:55;101568.03;;;13.47;70.90
50356;BME280;36264;51.296;-0.602;2022-07-29T04:52:21;101574.81;;;13.53;70.56
50356;BME280;36264;51.296;-0.602;2022-07-29T04:54:47;101573.78;;;13.58;70.58
50356;BME280;36264;51.296;-0.602;2022-07-29T04:57:13;101576.34;;;13.60;70.40
50356;BME280;36264;51.296;-0.602;2022-07-29T04:59:38;101572.06;;;13.57;71.19
50356;BME280;36264;51.296;-0.602;2022-07-29T05:02:03;101578.19;;;13.56;71.35
50356;BME280;36264;51.296;-0.602;2022-07-29T05:04:29;101571.16;;;13.58;71.40
50356;BME280;36264;51.296;-0.602;2022-07-29T05:06:54;101572.06;;;13.57;71.34
50356;BME280;36264;51.296;-0.602;2022-07-29T05:09:19;101576.25;;;13.63;71.42
50356;BME280;36264;51.296;-0.602;2022-07-29T05:11:45;101574.28;;;13.70;71.21
50356;BME280;36264;51.296;-0.602;2022-07-29T05:14:10;101575.91;;;13.74;71.17
50356;BME280;36264;51.296;-0.602;2022-07-29T05:16:36;101579.19;;;13.81;70.96
50356;BME280;36264;51.296;-0.602;2022-07-29T05:19:01;101577.28;;;13.86;70.95
50356;BME280;36264;51.296;-0.602;2022-07-29T05:21:26;101577.22;;;13.87;71.19
50356;BME280;36264;51.296;-0.602;2022-07-29T05:23:52;101579.78;;;13.89;70.91
50356;BME280;36264;51.296;-0.602;2022-07-29T05:26:17;101583.31;;;13.88;71.27
50356;BME280;36264;51.296;-0.602;2022-07-29T05:28:43;101577.94;;;13.92;71.50
50356;BME280;36264;51.296;-0.602;2022-07-29T05:31:08;101582.13;;;13.98;71.41
50356;BME280;36264;51.296;-0.602;2022-07-29T05:33:33;101581.19;;;14.01;71.28
50356;BME280;36264;51.296;-0.602;2022-07-29T05:35:59;101588.03;;;14.03;71.57
50356;BME280;36264;51.296;-0.602;2022-07-29T05:38:24;101586.16;;;14.08;71.17
50356;BME280;36264;51.296;-0.602;2022-07-29T05:40:50;101585.97;;;14.13;71.00
50356;BME280;36264;51.296;-0.602;2022-07-29T05:43:15;101592.78;;;14.19;71.15
50356;BME280;36264;51.296;-0.602;2022-07-29T05:45:40;101583.13;;;14.21;70.73
50356;BME280;36264;51.296;-0.602;2022-07-29T05:48:06;101581.19;;;14.27;71.28
50356;BME280;36264;51.296;-0.602;2022-07-29T05:50:31;101596.63;;;14.34;70.97
50356;BME280;36264;51.296;-0.602;2022-07-29T05:52:56;101597.34;;;14.39;70.97
50356;BME280;36264;51.296;-0.602;2022-07-29T05:55:22;101591.06;;;14.44;71.08
50356;BME280;36264;51.296;-0.602;2022-07-29T05:57:47;101596.06;;;14.50;71.44
50356;BME280;36264;51.296;-0.602;2022-07-29T06:00:12;101596.72;;;14.57;70.76
50356;BME280;36264;51.296;-0.602;2022-07-29T06:02:38;101607.81;;;14.65;70.78
50356;BME280;36264;51.296;-0.602;2022-07-29T06:05:03;101609.47;;;14.68;71.44
50356;BME280;36264;51.296;-0.602;2022-07-29T06:07:29;101610.44;;;14.65;71.84
50356;BME280;36264;51.296;-0.602;2022-07-29T06:09:55;101601.66;;;14.66;71.70
50356;BME280;36264;51.296;-0.602;2022-07-29T06:12:21;101611.81;;;14.76;71.80
50356;BME280;36264;51.296;-0.602;2022-07-29T06:14:46;101600.56;;;14.74;72.20
50356;BME280;36264;51.296;-0.602;2022-07-29T06:17:11;101606.16;;;14.88;72.12
50356;BME280;36264;51.296;-0.602;2022-07-29T06:19:37;101609.41;;;14.95;71.97
50356;BME280;36264;51.296;-0.602;2022-07-29T06:22:03;101611.75;;;15.02;71.84
50356;BME280;36264;51.296;-0.602;2022-07-29T06:24:28;101615.03;;;15.08;72.05
50356;BME280;36264;51.296;-0.602;2022-07-29T06:26:54;101618.22;;;15.16;71.61
50356;BME280;36264;51.296;-0.602;2022-07-29T06:29:19;101597.41;;;15.13;72.00
50356;BME280;36264;51.296;-0.602;2022-07-29T06:31:44;101612.44;;;15.31;71.63
50356;BME280;36264;51.296;-0.602;2022-07-29T06:34:10;101613.13;;;15.36;71.63
50356;BME280;36264;51.296;-0.602;2022-07-29T06:36:36;101617.06;;;15.48;71.60
50356;BME280;36264;51.296;-0.602;2022-07-29T06:39:06;101614.09;;;15.57;71.75
50356;BME280;36264;51.296;-0.602;2022-07-29T06:41:32;101616.44;;;15.64;71.37
50356;BME280;36264;51.296;-0.602;2022-07-29T06:43:57;101610.97;;;15.70;71.79
50356;BME280;36264;51.296;-0.602;2022-07-29T06:46:24;101607.34;;;15.74;71.27
50356;BME280;36264;51.296;-0.602;2022-07-29T06:48:50;101615.06;;;15.79;71.42
50356;BME280;36264;51.296;-0.602;2022-07-29T06:51:17;101623.59;;;15.84;71.50
50356;BME280;36264;51.296;-0.602;2022-07-29T06:53:42;101617.25;;;15.89;71.34
50356;BME280;36264;51.296;-0.602;2022-07-29T06:56:08;101623.22;;;15.93;71.33
50356;BME280;36264;51.296;-0.602;2022-07-29T06:58:34;101623.09;;;15.96;70.90
50356;BME280;36264;51.296;-0.602;2022-07-29T07:01:05;101618.59;;;16.00;71.00
50356;BME280;36264;51.296;-0.602;2022-07-29T07:03:31;101623.00;;;15.99;70.94
50356;BME280;36264;51.296;-0.602;2022-07-29T07:05:57;101624.56;;;16.03;70.89
50356;BME280;36264;51.296;-0.602;2022-07-29T07:08:23;101629.66;;;16.06;70.67
50356;BME280;36264;51.296;-0.602;2022-07-29T07:10:50;101632.28;;;16.06;70.85
50356;BME280;36264;51.296;-0.602;2022-07-29T07:13:15;101628.00;;;16.05;70.67
50356;BME280;36264;51.296;-0.602;2022-07-29T07:15:43;101628.00;;;16.05;70.71
50356;BME280;36264;51.296;-0.602;2022-07-29T07:18:08;101629.66;;;16.06;70.58
50356;BME280;36264;51.296;-0.602;2022-07-29T07:20:34;101630.59;;;16.05;70.82
50356;BME280;36264;51.296;-0.602;2022-07-29T07:22:59;101631.31;;;16.09;71.34
50356;BME280;36264;51.296;-0.602;2022-07-29T07:25:25;101622.56;;;16.10;70.90
50356;BME280;36264;51.296;-0.602;2022-07-29T07:27:50;101621.56;;;16.12;71.14
50356;BME280;36264;51.296;-0.602;2022-07-29T07:30:16;101630.19;;;16.16;71.11
50356;BME280;36264;51.296;-0.602;2022-07-29T07:32:42;101623.88;;;16.20;71.17
50356;BME280;36264;51.296;-0.602;2022-07-29T07:35:08;101628.09;;;16.24;70.97
50356;BME280;36264;51.296;-0.602;2022-07-29T07:37:35;101624.41;;;16.28;71.12
50356;BME280;36264;51.296;-0.602;2022-07-29T07:40:01;101634.72;;;16.33;71.09
50356;BME280;36264;51.296;-0.602;2022-07-29T07:42:26;101624.88;;;16.38;70.96
50356;BME280;36264;51.296;-0.602;2022-07-29T07:44:52;101634.41;;;16.41;70.87
50356;BME280;36264;51.296;-0.602;2022-07-29T07:47:17;101622.81;;;16.46;70.71
50356;BME280;36264;51.296;-0.602;2022-07-29T07:49:47;101633.13;;;16.51;71.34
50356;BME280;36264;51.296;-0.602;2022-07-29T07:52:14;101639.09;;;16.55;71.17
50356;BME280;36264;51.296;-0.602;2022-07-29T07:54:39;101633.59;;;16.61;71.36
50356;BME280;36264;51.296;-0.602;2022-07-29T07:57:05;101629.00;;;16.66;71.58
50356;BME280;36264;51.296;-0.602;2022-07-29T07:59:30;101632.25;;;16.71;71.26
50356;BME280;36264;51.296;-0.602;2022-07-29T08:01:55;101626.88;;;16.74;71.08
50356;BME280;36264;51.296;-0.602;2022-07-29T08:04:21;101638.03;;;16.79;71.79
50356;BME280;36264;51.296;-0.602;2022-07-29T08:06:46;101629.97;;;16.84;71.68
50356;BME280;36264;51.296;-0.602;2022-07-29T08:09:14;101630.66;;;16.89;71.78
50356;BME280;36264;51.296;-0.602;2022-07-29T08:11:40;101632.09;;;16.96;71.72
50356;BME280;36264;51.296;-0.602;2022-07-29T08:14:05;101636.09;;;17.05;71.61
50356;BME280;36264;51.296;-0.602;2022-07-29T08:16:30;101641.06;;;17.11;71.06
50356;BME280;36264;51.296;-0.602;2022-07-29T08:18:56;101647.75;;;17.18;71.33
50356;BME280;36264;51.296;-0.602;2022-07-29T08:21:23;101652.59;;;17.28;71.20
50356;BME280;36264;51.296;-0.602;2022-07-29T08:23:50;101647.19;;;17.31;70.30
50356;BME280;36264;51.296;-0.602;2022-07-29T08:26:19;101647.78;;;17.37;70.04
50356;BME280;36264;51.296;-0.602;2022-07-29T08:28:45;101644.72;;;17.47;70.02
50356;BME280;36264;51.296;-0.602;2022-07-29T08:31:14;101638.31;;;17.52;69.71
50356;BME280;36264;51.296;-0.602;2022-07-29T08:33:39;101637.28;;;17.56;69.19
50356;BME280;36264;51.296;-0.602;2022-07-29T08:36:05;101643.09;;;17.63;68.56
50356;BME280;36264;51.296;-0.602;2022-07-29T08:38:31;101641.03;;;17.70;68.11
50356;BME280;36264;51.296;-0.602;2022-07-29T08:40:58;101636.50;;;17.73;67.90
50356;BME280;36264;51.296;-0.602;2022-07-29T08:43:23;101633.44;;;17.83;67.82
50356;BME280;36264;51.296;-0.602;2022-07-29T08:45:50;101631.47;;;17.88;67.97
50356;BME280;36264;51.296;-0.602;2022-07-29T08:48:21;101631.19;;;17.94;67.66
50356;BME280;36264;51.296;-0.602;2022-07-29T08:50:48;101628.25;;;18.00;66.78
50356;BME280;36264;51.296;-0.602;2022-07-29T08:53:17;101628.03;;;18.05;65.93
50356;BME280;36264;51.296;-0.602;2022-07-29T08:55:44;101625.09;;;18.11;64.96
50356;BME280;36264;51.296;-0.602;2022-07-29T08:58:10;101631.59;;;18.21;64.44
50356;BME280;36264;51.296;-0.602;2022-07-29T09:00:38;101632.06;;;18.29;63.62
50356;BME280;36264;51.296;-0.602;2022-07-29T09:03:07;101629.84;;;18.39;63.72
50356;BME280;36264;51.296;-0.602;2022-07-29T09:05:34;101631.84;;;18.52;62.88
50356;BME280;36264;51.296;-0.602;2022-07-29T09:08:00;101615.69;;;18.59;62.80
50356;BME280;36264;51.296;-0.602;2022-07-29T09:10:26;101620.50;;;18.69;62.42
50356;BME280;36264;51.296;-0.602;2022-07-29T09:12:54;101618.47;;;18.74;61.87
50356;BME280;36264;51.296;-0.602;2022-07-29T09:15:20;101614.56;;;18.81;61.46
50356;BME280;36264;51.296;-0.602;2022-07-29T09:17:48;101613.44;;;18.87;61.18
50356;BME280;36264;51.296;-0.602;2022-07-29T09:20:16;101618.22;;;18.96;60.59
50356;BME280;36264;51.296;-0.602;2022-07-29T09:22:42;101614.47;;;19.00;60.66
50356;BME280;36264;51.296;-0.602;2022-07-29T09:25:08;101612.47;;;19.05;60.40
50356;BME280;36264;51.296;-0.602;2022-07-29T09:27:36;101616.56;;;19.11;60.23
50356;BME280;36264;51.296;-0.602;2022-07-29T09:30:08;101616.31;;;19.15;60.11
50356;BME280;36264;51.296;-0.602;2022-07-29T09:33:00;101611.66;;;19.21;58.98
50356;BME280;36264;51.296;-0.602;2022-07-29T09:35:27;101607.09;;;19.24;60.25
50356;BME280;36264;51.296;-0.602;2022-07-29T09:37:54;101608.53;;;19.30;60.59
50356;BME280;36264;51.296;-0.602;2022-07-29T09:40:27;101610.66;;;19.39;58.87
50356;BME280;36264;51.296;-0.602;2022-07-29T09:42:53;101604.38;;;19.42;59.88
50356;BME280;36264;51.296;-0.602;2022-07-29T09:45:29;101606.78;;;19.46;58.54
50356;BME280;36264;51.296;-0.602;2022-07-29T09:47:56;101609.91;;;19.53;59.67
50356;BME280;36264;51.296;-0.602;2022-07-29T09:50:39;101616.44;;;19.62;59.53
50356;BME280;36264;51.296;-0.602;2022-07-29T09:53:05;101617.72;;;19.70;59.67
50356;BME280;36264;51.296;-0.602;2022-07-29T09:55:31;101615.69;;;19.76;58.76
50356;BME280;36264;51.296;-0.602;2022-07-29T09:58:15;101615.03;;;19.88;56.40
50356;BME280;36264;51.296;-0.602;2022-07-29T10:00:42;101612.06;;;19.94;58.26
50356;BME280;36264;51.296;-0.602;2022-07-29T10:03:08;101603.72;;;20.02;57.48
50356;BME280;36264;51.296;-0.602;2022-07-29T10:05:34;101609.28;;;20.12;57.73
50356;BME280;36264;51.296;-0.602;2022-07-29T10:07:59;101604.59;;;20.17;56.56
50356;BME280;36264;51.296;-0.602;2022-07-29T10:10:27;101599.91;;;20.22;56.07
50356;BME280;36264;51.296;-0.602;2022-07-29T10:15:22;101604.56;;;20.33;55.91
50356;BME280;36264;51.296;-0.602;2022-07-29T10:17:48;101609.38;;;20.40;56.04
50356;BME280;36264;51.296;-0.602;2022-07-29T10:20:15;101609.03;;;20.47;55.57
50356;BME280;36264;51.296;-0.602;2022-07-29T10:22:41;101607.13;;;20.49;55.61
50356;BME280;36264;51.296;-0.602;2022-07-29T10:25:08;101603.28;;;20.54;54.39
50356;BME280;36264;51.296;-0.602;2022-07-29T10:27:35;101595.47;;;20.53;54.49
50356;BME280;36264;51.296;-0.602;2022-07-29T10:30:01;101596.13;;;20.56;54.62
50356;BME280;36264;51.296;-0.602;2022-07-29T10:32:35;101595.84;;;20.61;54.15
50356;BME280;36264;51.296;-0.602;2022-07-29T10:35:15;101594.94;;;20.62;54.50
50356;BME280;36264;51.296;-0.602;2022-07-29T10:43:07;101597.53;;;20.92;53.72
50356;BME280;36264;51.296;-0.602;2022-07-29T10:45:39;101603.38;;;20.97;53.87
50356;BME280;36264;51.296;-0.602;2022-07-29T10:48:05;101601.00;;;21.07;53.48
50356;BME280;36264;51.296;-0.602;2022-07-29T10:53:21;101597.31;;;21.24;52.89
50356;BME280;36264;51.296;-0.602;2022-07-29T10:55:47;101592.03;;;21.24;53.16
50356;BME280;36264;51.296;-0.602;2022-07-29T10:58:19;101593.31;;;21.31;52.54
50356;BME280;36264;51.296;-0.602;2022-07-29T11:00:46;101589.09;;;21.29;48.34
50356;BME280;36264;51.296;-0.602;2022-07-29T11:03:43;101600.13;;;21.35;50.24
50356;BME280;36264;51.296;-0.602;2022-07-29T11:06:13;101593.31;;;21.46;52.88
50356;BME280;36264;51.296;-0.602;2022-07-29T11:08:39;101592.47;;;21.60;52.34
50356;BME280;36264;51.296;-0.602;2022-07-29T11:13:53;101604.50;;;21.78;52.29
50356;BME280;36264;51.296;-0.602;2022-07-29T11:16:21;101605.97;;;21.82;51.56
50356;BME280;36264;51.296;-0.602;2022-07-29T11:19:25;101605.03;;;21.83;48.43
50356;BME280;36264;51.296;-0.602;2022-07-29T11:21:50;101601.47;;;21.84;51.16
50356;BME280;36264;51.296;-0.602;2022-07-29T11:24:30;101608.44;;;21.85;51.32
50356;BME280;36264;51.296;-0.602;2022-07-29T11:27:30;101611.53;;;21.92;46.71
50356;BME280;36264;51.296;-0.602;2022-07-29T11:29:57;101601.84;;;22.05;50.37
50356;BME280;36264;51.296;-0.602;2022-07-29T11:32:36;101598.28;;;22.19;48.54
50356;BME280;36264;51.296;-0.602;2022-07-29T11:35:21;101596.31;;;22.36;47.62
50356;BME280;36264;51.296;-0.602;2022-07-29T11:41:26;101586.19;;;22.55;46.36
50356;BME280;36264;51.296;-0.602;2022-07-29T11:43:57;101590.63;;;22.68;48.55
50356;BME280;36264;51.296;-0.602;2022-07-29T11:46:43;101585.53;;;22.77;47.66
50356;BME280;36264;51.296;-0.602;2022-07-29T11:49:09;101597.63;;;22.82;48.48
50356;BME280;36264;51.296;-0.602;2022-07-29T11:51:38;101590.19;;;22.87;46.97
50356;BME280;36264;51.296;-0.602;2022-07-29T11:54:05;101590.41;;;22.96;48.24
50356;BME280;36264;51.296;-0.602;2022-07-29T11:56:34;101581.41;;;23.12;47.57
50356;BME280;36264;51.296;-0.602;2022-07-29T11:59:04;101590.19;;;23.25;47.99
50356;BME280;36264;51.296;-0.602;2022-07-29T12:01:30;101584.22;;;23.34;47.41
50356;BME280;36264;51.296;-0.602;2022-07-29T12:04:06;101582.72;;;23.43;46.92
50356;BME280;36264;51.296;-0.602;2022-07-29T12:06:33;101585.88;;;23.48;47.55
50356;BME280;36264;51.296;-0.602;2022-07-29T12:08:59;101584.75;;;23.64;47.11
50356;BME280;36264;51.296;-0.602;2022-07-29T12:11:25;101582.16;;;23.75;46.39
50356;BME280;36264;51.296;-0.602;2022-07-29T12:13:51;101585.38;;;23.67;45.60
50356;BME280;36264;51.296;-0.602;2022-07-29T12:16:17;101583.16;;;23.61;46.37
50356;BME280;36264;51.296;-0.602;2022-07-29T12:18:55;101583.94;;;23.63;44.31
50356;BME280;36264;51.296;-0.602;2022-07-29T12:21:20;101573.22;;;23.65;46.16
50356;BME280;36264;51.296;-0.602;2022-07-29T12:23:52;101576.63;;;23.78;46.06
50356;BME280;36264;51.296;-0.602;2022-07-29T12:26:19;101567.91;;;23.89;46.20
50356;BME280;36264;51.296;-0.602;2022-07-29T12:28:44;101566.66;;;24.06;45.62
50356;BME280;36264;51.296;-0.602;2022-07-29T12:31:13;101564.38;;;24.13;45.49
50356;BME280;36264;51.296;-0.602;2022-07-29T12:33:40;101561.63;;;24.14;45.28
50356;BME280;36264;51.296;-0.602;2022-07-29T12:36:06;101567.56;;;24.29;45.36
50356;BME280;36264;51.296;-0.602;2022-07-29T12:38:31;101566.72;;;24.40;45.13
50356;BME280;36264;51.296;-0.602;2022-07-29T12:40:57;101557.19;;;24.49;44.42
50356;BME280;36264;51.296;-0.602;2022-07-29T12:43:23;101552.63;;;24.51;43.92
50356;BME280;36264;51.296;-0.602;2022-07-29T12:46:13;101550.34;;;24.46;41.41
50356;BME280;36264;51.296;-0.602;2022-07-29T12:48:40;101548.75;;;24.55;44.54
50356;BME280;36264;51.296;-0.602;2022-07-29T12:51:07;101560.53;;;24.75;43.82
50356;BME280;36264;51.296;-0.602;2022-07-29T12:53:34;101544.69;;;24.85;43.14
50356;BME280;36264;51.296;-0.602;2022-07-29T12:56:00;101553.63;;;24.84;43.03
50356;BME280;36264;51.296;-0.602;2022-07-29T13:01:16;101547.38;;;24.73;39.57
50356;BME280;36264;51.296;-0.602;2022-07-29T13:03:50;101552.56;;;24.75;42.30
50356;BME280;36264;51.296;-0.602;2022-07-29T13:09:08;101553.66;;;24.95;42.40
50356;BME280;36264;51.296;-0.602;2022-07-29T13:11:34;101556.16;;;25.08;42.05
50356;BME280;36264;51.296;-0.602;2022-07-29T13:14:00;101548.88;;;25.21;42.17
50356;BME280;36264;51.296;-0.602;2022-07-29T13:16:26;101553.47;;;25.42;42.58
50356;BME280;36264;51.296;-0.602;2022-07-29T13:19:04;101546.31;;;25.54;39.18
50356;BME280;36264;51.296;-0.602;2022-07-29T13:21:30;101551.50;;;25.55;42.23
50356;BME280;36264;51.296;-0.602;2022-07-29T13:23:55;101550.09;;;25.72;42.10